createdAt,value
2023-04-10T00:03:02.425Z,49.90
2023-04-10T00:07:06.974Z,42.60
2023-04-10T00:11:10.173Z,40.80
2023-04-10T00:15:13.552Z,47.50
2023-04-10T00:19:17.247Z,40.70
2023-04-10T00:23:20.538Z,42.80
2023-04-10T00:27:23.674Z,45.40
2023-04-10T00:31:27.020Z,45.90
2023-04-10T00:35:30.087Z,47.60
2023-04-10T00:39:33.548Z,47.70
2023-04-10T00:43:37.170Z,45.20
2023-04-10T00:47:41.243Z,50.00
2023-04-10T00:51:44.720Z,41.90
2023-04-10T00:55:49.801Z,36.40
2023-04-10T00:59:53.439Z,48.70
2023-04-10T01:03:57.295Z,48.10
2023-04-10T01:08:18.115Z,46.50
2023-04-10T01:12:21.345Z,52.20
2023-04-10T01:16:31.673Z,47.50
2023-04-10T01:20:39.863Z,40.90
2023-04-10T01:25:14.279Z,51.50
2023-04-10T01:29:21.426Z,47.30
2023-04-10T01:33:32.934Z,45.60
2023-04-10T01:37:43.844Z,43.00
2023-04-10T01:41:51.269Z,50.30
2023-04-10T01:45:55.052Z,44.70
2023-04-10T01:49:59.587Z,52.70
2023-04-10T01:54:06.381Z,47.70
2023-04-10T01:58:11.024Z,49.50
2023-04-10T02:02:14.442Z,46.00
2023-04-10T02:06:42.656Z,42.20
2023-04-10T02:11:03.409Z,40.80
2023-04-10T02:15:08.936Z,38.00
2023-04-10T02:19:13.510Z,42.20
2023-04-10T02:23:17.839Z,46.40
2023-04-10T02:27:30.619Z,36.60
2023-04-10T02:31:33.917Z,40.80
2023-04-10T02:35:39.790Z,49.80
2023-04-10T02:39:43.467Z,36.80
2023-04-10T02:43:47.077Z,33.60
2023-04-10T02:47:51.243Z,45.20
2023-04-10T02:51:54.831Z,40.00
2023-04-10T02:55:58.662Z,29.10
2023-04-10T03:00:03.122Z,30.60
2023-04-10T03:04:06.868Z,29.30
2023-04-10T03:08:10.542Z,29.30
2023-04-10T03:12:13.917Z,29.50
2023-04-10T03:16:20.166Z,29.30
2023-04-10T03:20:23.548Z,36.20
2023-04-10T03:24:27.402Z,29.80
2023-04-10T03:28:33.126Z,22.80
2023-04-10T03:32:36.498Z,39.50
2023-04-10T03:36:40.306Z,28.50
2023-04-10T03:40:43.895Z,42.20
2023-04-10T03:44:47.708Z,37.00
2023-04-10T03:48:53.010Z,37.60
2023-04-10T03:52:56.591Z,35.00
2023-04-10T03:57:01.779Z,33.60
2023-04-10T04:01:05.976Z,33.30
2023-04-10T04:05:09.939Z,37.70
2023-04-10T04:09:13.689Z,37.70
2023-04-10T04:13:17.319Z,40.90
2023-04-10T04:21:51.440Z,43.00
2023-04-10T04:25:57.132Z,45.20
2023-04-10T04:30:08.378Z,39.30
2023-04-10T04:34:12.965Z,34.70
2023-04-10T04:38:20.346Z,31.90
2023-04-10T04:46:50.559Z,32.30
2023-04-10T04:50:57.510Z,29.90
2023-04-10T04:55:08.518Z,20.40
2023-04-10T05:17:15.876Z,36.20
2023-04-10T05:25:58.160Z,28.90
2023-04-10T05:43:10.564Z,60.70
2023-04-10T05:47:17.876Z,64.70
2023-04-10T05:51:23.338Z,53.10
2023-04-10T05:59:37.540Z,59.60
2023-04-10T06:03:47.719Z,86.10
2023-04-10T06:07:56.892Z,49.00
2023-04-10T06:12:01.698Z,71.10
2023-04-10T06:16:06.326Z,77.90
2023-04-10T06:20:10.426Z,56.20
2023-04-10T06:24:16.076Z,69.10
2023-04-10T06:28:19.601Z,55.20
2023-04-10T06:32:23.824Z,67.40
2023-04-10T06:36:27.817Z,80.70
2023-04-10T06:40:31.109Z,38.30
2023-04-10T06:44:36.780Z,38.60
2023-04-10T06:48:39.998Z,32.60
2023-04-10T06:52:45.501Z,38.90
2023-04-10T06:56:49.054Z,38.30
2023-04-10T07:00:52.399Z,34.30
2023-04-10T07:04:56.959Z,57.30
2023-04-10T07:08:59.989Z,85.60
2023-04-10T07:13:03.118Z,60.30
2023-04-10T07:17:06.613Z,88.90
2023-04-10T07:21:14.682Z,69.20
2023-04-10T07:25:18.663Z,75.30
2023-04-10T07:29:22.105Z,57.70
2023-04-10T07:33:28.057Z,57.70
2023-04-10T07:37:31.014Z,72.70
2023-04-10T07:41:33.959Z,48.90
2023-04-10T07:45:37.000Z,52.00
2023-04-10T07:49:40.415Z,58.30
2023-04-10T07:53:43.488Z,46.90
2023-04-10T07:57:47.108Z,47.60
2023-04-10T08:01:50.631Z,50.90
2023-04-10T08:05:53.745Z,53.80
2023-04-10T08:09:57.260Z,49.60
2023-04-10T08:14:02.493Z,51.70
2023-04-10T08:18:05.666Z,43.90
2023-04-10T08:22:09.382Z,52.10
2023-04-10T08:26:12.737Z,53.90
2023-04-10T08:30:15.731Z,42.60
2023-04-10T08:34:18.939Z,41.90
2023-04-10T08:38:23.967Z,40.70
2023-04-10T08:42:27.562Z,38.30
2023-04-10T08:46:36.802Z,42.30
2023-04-10T08:50:46.485Z,49.00
2023-04-10T08:54:56.322Z,39.90
2023-04-10T08:59:01.631Z,35.40
2023-04-10T09:03:08.914Z,38.40
2023-04-10T09:07:12.221Z,34.50
2023-04-10T09:11:15.536Z,34.30
2023-04-10T09:15:18.836Z,40.00
2023-04-10T09:19:32.821Z,41.20
2023-04-10T09:23:36.320Z,36.40
2023-04-10T09:27:40.237Z,37.90
2023-04-10T09:31:44.137Z,36.10
2023-04-10T09:35:50.593Z,35.40
2023-04-10T09:39:54.549Z,39.00
2023-04-10T09:44:21.194Z,40.80
2023-04-10T09:49:01.014Z,38.50
2023-04-10T09:54:23.425Z,35.50
2023-04-10T09:58:29.636Z,40.40
2023-04-10T10:02:51.961Z,33.30
2023-04-10T10:07:28.813Z,33.10
2023-04-10T10:12:31.606Z,36.60
2023-04-10T10:17:33.936Z,38.30
2023-04-10T10:21:44.632Z,32.70
2023-04-10T10:25:52.070Z,32.40
2023-04-10T10:30:01.252Z,34.60
2023-04-10T10:39:18.617Z,28.90
2023-04-10T10:44:14.722Z,36.10
2023-04-10T10:53:29.078Z,33.50
2023-04-10T10:58:28.107Z,42.80
2023-04-10T11:02:42.544Z,36.70
2023-04-10T11:11:25.407Z,33.50
2023-04-10T11:15:53.020Z,33.30
2023-04-10T11:20:40.104Z,32.00
2023-04-10T11:24:52.978Z,29.60
2023-04-10T11:28:57.025Z,35.30
2023-04-10T11:33:01.956Z,34.10
2023-04-10T11:37:07.280Z,43.60
2023-04-10T11:41:11.001Z,62.90
2023-04-10T11:45:29.086Z,49.30
2023-04-10T11:49:34.970Z,45.30
2023-04-10T11:53:48.747Z,49.60
2023-04-10T11:58:10.182Z,30.70
2023-04-10T12:02:28.712Z,33.20
2023-04-10T12:16:49.198Z,38.80
2023-04-10T12:21:44.338Z,36.10
2023-04-10T12:26:43.558Z,34.40
2023-04-10T12:31:33.424Z,37.20
2023-04-10T12:36:12.420Z,26.20
2023-04-10T12:40:42.845Z,30.10
2023-04-10T12:45:05.048Z,27.70
2023-04-10T12:49:32.279Z,33.00
2023-04-10T12:53:54.582Z,29.90
2023-04-10T13:08:26.411Z,30.80
2023-04-10T13:12:48.841Z,29.80
2023-04-10T13:21:46.850Z,29.90
2023-04-10T13:25:56.916Z,30.70
2023-04-10T13:34:58.092Z,34.10
2023-04-10T13:39:18.825Z,25.60
2023-04-10T13:43:45.930Z,27.00
2023-04-10T13:48:37.354Z,28.70
2023-04-10T13:53:13.901Z,27.30
2023-04-10T13:58:28.960Z,30.20
2023-04-10T14:07:15.976Z,28.60
2023-04-10T14:16:36.239Z,25.80
2023-04-10T14:25:49.881Z,22.40
2023-04-10T14:44:48.148Z,25.70
2023-04-10T15:11:42.981Z,18.20
2023-04-10T15:16:02.445Z,23.00
2023-04-10T15:20:19.884Z,19.60
2023-04-10T15:24:22.999Z,23.50
2023-04-10T15:28:28.369Z,19.70
2023-04-10T15:32:31.505Z,19.90
2023-04-10T15:36:34.568Z,25.00
2023-04-10T15:40:37.767Z,17.50
2023-04-10T15:44:40.973Z,23.10
2023-04-10T15:48:46.356Z,24.10
2023-04-10T15:52:50.251Z,21.00
2023-04-10T15:56:53.339Z,20.90
2023-04-10T16:00:57.029Z,22.90
2023-04-10T16:05:00.163Z,24.90
2023-04-10T16:09:06.220Z,22.90
2023-04-10T16:13:13.017Z,29.30
2023-04-10T16:17:16.189Z,50.20
2023-04-10T16:21:21.380Z,82.00
2023-04-10T16:25:27.428Z,135.90
2023-04-10T16:33:33.981Z,227.40
2023-04-10T16:37:37.738Z,94.70
2023-04-10T16:41:41.198Z,38.70
2023-04-10T16:45:44.188Z,39.10
2023-04-10T16:49:47.279Z,26.00
2023-04-10T16:53:50.398Z,29.90
2023-04-10T16:57:53.571Z,18.50
2023-04-10T17:01:56.508Z,29.60
2023-04-10T17:05:59.763Z,47.40
2023-04-10T17:10:03.335Z,53.40
2023-04-10T17:14:07.486Z,45.80
2023-04-10T17:18:11.322Z,43.90
2023-04-10T17:22:17.488Z,36.90
2023-04-10T17:26:23.324Z,42.80
2023-04-10T17:30:26.419Z,43.80
2023-04-10T17:34:29.712Z,37.00
2023-04-10T17:38:32.516Z,40.30
2023-04-10T17:42:35.579Z,32.40
2023-04-10T17:46:38.384Z,31.70
2023-04-10T17:50:44.872Z,33.50
2023-04-10T17:54:49.929Z,34.30
2023-04-10T17:58:55.234Z,39.80
2023-04-10T18:03:13.367Z,35.40
2023-04-10T18:07:16.683Z,30.90
2023-04-10T18:11:20.227Z,39.50
2023-04-10T18:15:23.725Z,49.90
2023-04-10T18:19:29.672Z,53.60
2023-04-10T18:23:34.396Z,41.20
2023-04-10T18:28:13.958Z,47.10
2023-04-10T18:32:19.081Z,53.70
2023-04-10T18:40:40.568Z,48.10
2023-04-10T18:49:01.254Z,59.10
2023-04-10T18:53:04.944Z,42.10
2023-04-10T18:57:10.222Z,43.90
2023-04-10T19:01:13.459Z,38.20
2023-04-10T19:05:17.157Z,45.40
2023-04-10T19:14:06.471Z,41.60
2023-04-10T19:18:13.034Z,40.90
2023-04-10T19:22:19.306Z,40.10
2023-04-10T19:26:23.225Z,45.20
2023-04-10T19:30:26.645Z,43.50
2023-04-10T19:34:30.546Z,44.10
2023-04-10T19:38:33.929Z,43.60
2023-04-10T19:42:38.053Z,43.30
2023-04-10T19:46:41.755Z,42.10
2023-04-10T19:50:45.089Z,46.50
2023-04-10T19:54:48.243Z,45.80
2023-04-10T19:58:51.393Z,44.60
2023-04-10T20:02:54.842Z,48.70
2023-04-10T20:06:58.334Z,48.30
2023-04-10T20:11:02.043Z,39.90
2023-04-10T20:15:05.709Z,49.30
2023-04-10T20:19:08.815Z,46.40
2023-04-10T20:23:12.925Z,108.70
2023-04-10T20:27:16.441Z,49.10
2023-04-10T20:31:19.873Z,46.80
2023-04-10T20:35:23.352Z,41.10
2023-04-10T20:39:26.548Z,46.40
2023-04-10T20:43:29.749Z,45.00
2023-04-10T20:47:32.940Z,45.70
2023-04-10T20:51:37.454Z,50.90
2023-04-10T20:55:40.826Z,43.70
2023-04-10T20:59:45.542Z,48.30
2023-04-10T21:03:48.759Z,53.70
2023-04-10T21:07:51.998Z,54.70
2023-04-10T21:11:55.898Z,50.60
2023-04-10T21:33:33.608Z,41.30
2023-04-10T21:37:41.656Z,45.50
2023-04-10T21:41:47.735Z,40.00
2023-04-10T21:45:51.321Z,47.70
2023-04-10T21:49:54.955Z,50.90
2023-04-10T21:53:58.530Z,62.70
2023-04-10T21:58:01.993Z,73.20
2023-04-10T22:02:05.556Z,72.70
2023-04-10T22:06:09.860Z,78.30
2023-04-10T22:10:18.180Z,87.40
2023-04-10T22:14:22.998Z,76.60
2023-04-10T22:18:28.487Z,78.70
2023-04-10T22:22:32.252Z,76.10
2023-04-10T22:26:35.788Z,73.40
2023-04-10T22:30:43.476Z,57.70
2023-04-10T22:44:07.811Z,49.60
2023-04-10T22:57:03.142Z,44.00
2023-04-10T23:01:08.440Z,51.00
2023-04-10T23:05:11.882Z,49.30
2023-04-10T23:09:16.341Z,48.00
2023-04-10T23:18:06.797Z,51.40
2023-04-10T23:22:41.706Z,56.30
2023-04-10T23:31:32.956Z,47.40
2023-04-10T23:35:38.020Z,54.90
2023-04-10T23:40:12.814Z,49.30
2023-04-10T23:44:20.873Z,50.50
2023-04-10T23:48:42.838Z,54.80
2023-04-10T23:57:46.651Z,46.90
